createdAt,value
2019-02-24T00:00:38.041Z,23.57
2019-02-24T00:01:47.165Z,23.47
2019-02-24T00:02:56.586Z,23.5
2019-02-24T00:04:06.409Z,23.51
2019-02-24T00:05:15.768Z,23.4
2019-02-24T00:06:25.405Z,23.51
2019-02-24T00:07:34.550Z,23.43
2019-02-24T00:08:43.953Z,23.36
2019-02-24T00:09:53.278Z,23.38
2019-02-24T00:11:02.827Z,23.38
2019-02-24T00:12:11.650Z,23.38
2019-02-24T00:13:20.974Z,23.43
2019-02-24T00:14:30.095Z,23.38
2019-02-24T00:15:39.358Z,23.25
2019-02-24T00:16:48.977Z,23.33
2019-02-24T00:17:58.563Z,23.33
2019-02-24T00:19:08.778Z,23.22
2019-02-24T00:20:18.091Z,23.31
2019-02-24T00:21:27.437Z,23.19
2019-02-24T00:22:37.111Z,23.19
2019-02-24T00:23:46.500Z,23.2
2019-02-24T00:24:56.131Z,23.2
2019-02-24T00:26:06.991Z,23.19
2019-02-24T00:27:15.837Z,23.17
2019-02-24T00:28:25.370Z,23.17
2019-02-24T00:29:35.019Z,23.16
2019-02-24T00:30:44.098Z,23.17
2019-02-24T00:31:53.747Z,23.19
2019-02-24T00:33:02.897Z,23.07
2019-02-24T00:34:12.209Z,23.07
2019-02-24T00:35:21.836Z,23.09
2019-02-24T00:36:31.540Z,23.09
2019-02-24T00:37:40.388Z,23.09
2019-02-24T00:38:49.504Z,23.01
2019-02-24T00:39:58.338Z,23.07
2019-02-24T00:41:08.098Z,23.09
2019-02-24T00:42:17.290Z,23.05
2019-02-24T00:43:26.985Z,23.09
2019-02-24T00:44:36.418Z,23.09
2019-02-24T00:45:45.538Z,23.09
2019-02-24T00:46:54.653Z,22.97
2019-02-24T00:48:04.091Z,23.01
2019-02-24T00:49:13.328Z,23.04
2019-02-24T00:50:22.439Z,22.92
2019-02-24T00:51:31.271Z,22.97
2019-02-24T00:52:40.366Z,22.95
2019-02-24T00:53:50.037Z,22.92
2019-02-24T00:54:59.123Z,22.95
2019-02-24T00:56:08.842Z,22.95
2019-02-24T00:57:18.410Z,22.94
2019-02-24T00:58:28.012Z,22.95
2019-02-24T00:59:37.507Z,22.94
2019-02-24T01:00:46.976Z,22.94
2019-02-24T01:01:56.210Z,22.86
2019-02-24T01:03:06.687Z,22.85
2019-02-24T01:04:16.171Z,22.86
2019-02-24T01:05:25.569Z,22.82
2019-02-24T01:06:34.625Z,22.85
2019-02-24T01:07:43.934Z,22.83
2019-02-24T01:08:52.805Z,22.83
2019-02-24T01:10:02.020Z,22.8
2019-02-24T01:11:11.460Z,22.77
2019-02-24T01:12:21.166Z,22.77
2019-02-24T01:13:30.807Z,22.77
2019-02-24T01:14:40.820Z,22.75
2019-02-24T01:15:50.256Z,22.77
2019-02-24T01:16:59.657Z,22.72
2019-02-24T01:18:09.625Z,22.76
2019-02-24T01:19:18.665Z,22.75
2019-02-24T01:20:28.582Z,22.73
2019-02-24T01:21:37.847Z,22.67
2019-02-24T01:22:47.239Z,22.75
2019-02-24T01:23:56.374Z,22.77
2019-02-24T01:25:06.007Z,22.73
2019-02-24T01:26:15.523Z,22.67
2019-02-24T01:27:24.881Z,22.75
2019-02-24T01:28:34.278Z,22.72
2019-02-24T01:29:43.674Z,22.73
2019-02-24T01:30:53.856Z,22.73
2019-02-24T01:32:03.125Z,22.65
2019-02-24T01:33:13.099Z,22.67
2019-02-24T01:34:22.983Z,22.6
2019-02-24T01:35:32.281Z,22.61
2019-02-24T01:36:41.942Z,22.58
2019-02-24T01:37:51.470Z,22.67
2019-02-24T01:39:00.932Z,22.57
2019-02-24T01:40:10.291Z,22.57
2019-02-24T01:41:19.731Z,22.67
2019-02-24T01:42:29.291Z,22.54
2019-02-24T01:43:38.757Z,22.61
2019-02-24T01:44:48.020Z,22.6
2019-02-24T01:45:57.165Z,22.57
2019-02-24T01:47:06.798Z,22.67
2019-02-24T01:48:16.413Z,22.64
2019-02-24T01:49:25.757Z,22.64
2019-02-24T01:50:35.177Z,22.57
2019-02-24T01:51:44.538Z,22.55
2019-02-24T01:52:53.775Z,22.62
2019-02-24T01:54:03.487Z,22.55
2019-02-24T01:55:12.891Z,22.6
2019-02-24T01:56:22.067Z,22.57
2019-02-24T01:57:30.933Z,22.58
2019-02-24T01:58:40.067Z,22.46
2019-02-24T01:59:49.125Z,22.52
2019-02-24T02:00:58.684Z,22.35
2019-02-24T02:02:07.815Z,22.52
2019-02-24T02:03:16.892Z,22.47
2019-02-24T02:04:26.111Z,22.39
2019-02-24T02:05:36.054Z,22.47
2019-02-24T02:06:45.484Z,22.46
2019-02-24T02:07:54.852Z,22.45
2019-02-24T02:09:04.014Z,22.43
2019-02-24T02:10:13.592Z,22.45
2019-02-24T02:11:23.223Z,22.43
2019-02-24T02:12:32.932Z,22.47
2019-02-24T02:13:42.843Z,22.47
2019-02-24T02:14:51.938Z,22.45
2019-02-24T02:17:54.981Z,22.37
2019-02-24T02:19:03.889Z,22.36
2019-02-24T02:20:13.285Z,22.36
2019-02-24T02:21:22.962Z,22.36
2019-02-24T02:22:32.846Z,22.4
2019-02-24T02:23:41.987Z,22.33
2019-02-24T02:24:51.855Z,22.35
2019-02-24T02:26:01.493Z,22.35
2019-02-24T02:27:11.124Z,22.3
2019-02-24T02:28:20.215Z,22.28
2019-02-24T02:29:29.231Z,22.25
2019-02-24T02:30:38.824Z,22.3
2019-02-24T02:31:48.971Z,22.3
2019-02-24T02:32:58.577Z,22.33
2019-02-24T02:34:08.611Z,22.28
2019-02-24T02:35:18.028Z,22.3
2019-02-24T02:36:27.679Z,22.28
2019-02-24T02:37:37.563Z,22.25
2019-02-24T02:38:47.093Z,22.21
2019-02-24T02:39:56.770Z,22.21
2019-02-24T02:41:06.554Z,22.24
2019-02-24T02:42:15.635Z,22.22
2019-02-24T02:43:25.239Z,22.2
2019-02-24T02:44:34.343Z,22.2
2019-02-24T02:45:43.864Z,22.1
2019-02-24T02:46:53.245Z,22.2
2019-02-24T02:48:03.085Z,22.17
2019-02-24T02:49:12.968Z,22.2
2019-02-24T02:50:22.857Z,22.2
2019-02-24T02:51:31.973Z,22.21
2019-02-24T02:52:41.559Z,22.15
2019-02-24T02:53:50.833Z,22.24
2019-02-24T02:55:00.435Z,22.21
2019-02-24T02:56:09.755Z,22.21
2019-02-24T02:57:20.124Z,22.2
2019-02-24T02:58:29.624Z,22.22
2019-02-24T02:59:38.941Z,22.25
2019-02-24T03:00:48.320Z,22.14
2019-02-24T03:01:57.619Z,22.14
2019-02-24T03:03:07.688Z,22.22
2019-02-24T03:04:17.234Z,22.09
2019-02-24T03:05:26.235Z,22.14
2019-02-24T03:06:35.766Z,22.17
2019-02-24T03:07:45.092Z,22.14
2019-02-24T03:08:54.130Z,22.18
2019-02-24T03:10:05.083Z,22.1
2019-02-24T03:11:14.592Z,22.05
2019-02-24T03:12:24.402Z,22.1
2019-02-24T03:13:33.656Z,22.05
2019-02-24T03:14:43.187Z,22.06
2019-02-24T03:15:52.282Z,22.02
2019-02-24T03:17:01.836Z,22.07
2019-02-24T03:18:11.675Z,22.07
2019-02-24T03:19:21.243Z,22.09
2019-02-24T03:20:30.531Z,22.03
2019-02-24T03:21:39.811Z,22.09
2019-02-24T03:22:49.630Z,22.03
2019-02-24T03:23:59.197Z,22.05
2019-02-24T03:25:08.742Z,22.14
2019-02-24T03:26:18.598Z,22.06
2019-02-24T03:27:27.985Z,21.98
2019-02-24T03:28:37.331Z,22.07
2019-02-24T03:29:46.902Z,21.98
2019-02-24T03:30:56.693Z,22.07
2019-02-24T03:32:06.885Z,22
2019-02-24T03:33:16.788Z,22
2019-02-24T03:34:26.640Z,21.98
2019-02-24T03:35:36.256Z,21.96
2019-02-24T03:36:45.831Z,21.98
2019-02-24T03:37:55.467Z,22
2019-02-24T03:39:05.501Z,21.99
2019-02-24T03:40:14.768Z,21.94
2019-02-24T03:41:23.892Z,21.96
2019-02-24T03:42:33.380Z,21.94
2019-02-24T03:43:42.946Z,21.91
2019-02-24T03:44:52.267Z,21.92
2019-02-24T03:46:01.572Z,21.98
2019-02-24T03:47:10.840Z,21.99
2019-02-24T03:48:19.664Z,21.94
2019-02-24T03:49:29.263Z,22.02
2019-02-24T03:50:38.341Z,22.02
2019-02-24T03:51:47.504Z,21.96
2019-02-24T03:52:57.129Z,21.94
2019-02-24T03:54:06.973Z,22.03
2019-02-24T03:55:16.500Z,21.98
2019-02-24T03:56:26.544Z,21.9
2019-02-24T03:57:36.120Z,21.99
2019-02-24T03:58:45.401Z,21.96
2019-02-24T03:59:54.953Z,21.98
2019-02-24T04:01:04.496Z,22
2019-02-24T04:02:14.033Z,21.82
2019-02-24T04:03:24.103Z,21.84
2019-02-24T04:04:33.435Z,21.99
2019-02-24T04:05:43.038Z,21.86
2019-02-24T04:06:52.365Z,21.88
2019-02-24T04:08:01.621Z,21.96
2019-02-24T04:09:11.393Z,21.9
2019-02-24T04:10:20.419Z,21.92
2019-02-24T04:11:29.723Z,21.9
2019-02-24T04:12:39.730Z,21.98
2019-02-24T04:13:49.327Z,21.94
2019-02-24T04:14:58.837Z,21.92
2019-02-24T04:16:08.382Z,21.91
2019-02-24T04:17:17.927Z,21.88
2019-02-24T04:18:26.919Z,21.88
2019-02-24T04:19:36.552Z,21.92
2019-02-24T04:20:46.402Z,21.91
2019-02-24T04:21:55.673Z,21.91
2019-02-24T04:23:04.914Z,21.88
2019-02-24T04:24:14.643Z,21.84
2019-02-24T04:25:24.085Z,21.86
2019-02-24T04:26:33.079Z,21.86
2019-02-24T04:27:42.083Z,21.75
2019-02-24T04:28:51.551Z,21.9
2019-02-24T04:30:01.349Z,21.92
2019-02-24T04:31:11.101Z,21.82
2019-02-24T04:32:20.366Z,21.74
2019-02-24T04:33:29.906Z,21.82
2019-02-24T04:34:39.194Z,21.88
2019-02-24T04:35:48.246Z,21.86
2019-02-24T04:36:57.794Z,21.72
2019-02-24T04:38:07.402Z,21.77
2019-02-24T04:39:16.212Z,21.79
2019-02-24T04:40:25.532Z,21.79
2019-02-24T04:41:35.160Z,21.9
2019-02-24T04:42:44.295Z,21.75
2019-02-24T04:43:54.348Z,21.77
2019-02-24T04:45:04.175Z,21.8
2019-02-24T04:46:13.297Z,21.84
2019-02-24T04:47:22.343Z,21.86
2019-02-24T04:48:31.424Z,21.8
2019-02-24T04:49:41.271Z,21.77
2019-02-24T04:50:50.800Z,21.79
2019-02-24T04:52:00.869Z,21.71
2019-02-24T04:53:10.672Z,21.77
2019-02-24T04:54:19.789Z,21.79
2019-02-24T04:55:29.298Z,21.77
2019-02-24T04:56:38.443Z,21.8
2019-02-24T04:57:47.555Z,21.77
2019-02-24T04:58:57.330Z,21.75
2019-02-24T05:00:06.934Z,21.72
2019-02-24T05:01:16.564Z,21.79
2019-02-24T05:02:25.886Z,21.72
2019-02-24T05:03:35.520Z,21.75
2019-02-24T05:04:45.074Z,21.74
2019-02-24T05:05:54.483Z,21.74
2019-02-24T05:07:04.036Z,21.69
2019-02-24T05:08:13.381Z,21.75
2019-02-24T05:09:23.209Z,21.74
2019-02-24T05:10:32.260Z,21.67
2019-02-24T05:11:41.044Z,21.69
2019-02-24T05:12:50.350Z,21.65
2019-02-24T05:14:00.335Z,21.68
2019-02-24T05:15:09.776Z,21.64
2019-02-24T05:16:18.960Z,21.65
2019-02-24T05:17:28.801Z,21.67
2019-02-24T05:18:38.623Z,21.65
2019-02-24T05:19:47.943Z,21.67
2019-02-24T05:20:56.984Z,21.65
2019-02-24T05:22:06.566Z,21.65
2019-02-24T05:23:16.048Z,21.68
2019-02-24T05:24:25.176Z,21.67
2019-02-24T05:25:34.446Z,21.65
2019-02-24T05:26:43.604Z,21.64
2019-02-24T05:27:52.903Z,21.64
2019-02-24T05:29:02.214Z,21.65
2019-02-24T05:30:11.726Z,21.61
2019-02-24T05:31:21.273Z,21.61
2019-02-24T05:32:30.592Z,21.65
2019-02-24T05:33:39.642Z,21.67
2019-02-24T05:34:49.484Z,21.59
2019-02-24T05:35:58.978Z,21.58
2019-02-24T05:37:08.553Z,21.62
2019-02-24T05:38:18.127Z,21.65
2019-02-24T05:39:27.908Z,21.59
2019-02-24T05:40:37.714Z,21.61
2019-02-24T05:41:46.775Z,21.62
2019-02-24T05:42:56.057Z,21.62
2019-02-24T05:44:05.625Z,21.53
2019-02-24T05:45:14.948Z,21.54
2019-02-24T05:46:24.750Z,21.56
2019-02-24T05:47:34.840Z,21.58
2019-02-24T05:48:44.144Z,21.53
2019-02-24T05:49:54.055Z,21.56
2019-02-24T05:51:02.870Z,21.58
2019-02-24T05:52:12.136Z,21.53
2019-02-24T05:53:21.417Z,21.56
2019-02-24T05:54:30.672Z,21.58
2019-02-24T05:55:39.960Z,21.59
2019-02-24T05:56:49.793Z,21.53
2019-02-24T05:57:59.046Z,21.44
2019-02-24T05:59:08.614Z,21.49
2019-02-24T06:00:18.114Z,21.52
2019-02-24T06:01:27.406Z,21.49
2019-02-24T06:02:36.743Z,21.42
2019-02-24T06:03:45.826Z,21.49
2019-02-24T06:04:55.358Z,21.49
2019-02-24T06:06:04.969Z,21.49
2019-02-24T06:07:14.243Z,21.46
2019-02-24T06:08:23.864Z,21.49
2019-02-24T06:09:33.222Z,21.49
2019-02-24T06:10:42.986Z,21.49
2019-02-24T06:11:52.757Z,21.4
2019-02-24T06:13:01.531Z,21.37
2019-02-24T06:14:10.854Z,21.44
2019-02-24T06:15:19.889Z,21.43
2019-02-24T06:16:29.711Z,21.43
2019-02-24T06:17:39.552Z,21.49
2019-02-24T06:18:48.698Z,21.4
2019-02-24T06:19:57.738Z,21.42
2019-02-24T06:21:07.321Z,21.44
2019-02-24T06:22:16.653Z,21.43
2019-02-24T06:23:25.999Z,21.38
2019-02-24T06:24:35.606Z,21.43
2019-02-24T06:25:45.367Z,21.38
2019-02-24T06:26:54.662Z,21.44
2019-02-24T06:28:04.175Z,21.46
2019-02-24T06:29:13.475Z,21.35
2019-02-24T06:30:22.765Z,21.34
2019-02-24T06:31:32.531Z,21.4
2019-02-24T06:32:42.344Z,21.4
2019-02-24T06:33:51.658Z,21.37
2019-02-24T06:35:01.168Z,21.34
2019-02-24T06:36:11.217Z,21.35
2019-02-24T06:37:20.513Z,21.32
2019-02-24T06:38:29.279Z,21.37
2019-02-24T06:39:39.314Z,21.37
2019-02-24T06:40:48.642Z,21.38
2019-02-24T06:41:58.382Z,21.4
2019-02-24T06:43:07.711Z,21.35
2019-02-24T06:44:16.756Z,21.32
2019-02-24T06:45:25.794Z,21.38
2019-02-24T06:46:34.526Z,21.34
2019-02-24T06:47:44.047Z,21.35
2019-02-24T06:48:53.353Z,21.28
2019-02-24T06:50:03.161Z,21.28
2019-02-24T06:51:12.429Z,21.28
2019-02-24T06:52:21.913Z,21.29
2019-02-24T06:53:33.148Z,21.27
2019-02-24T06:54:42.671Z,21.29
2019-02-24T06:55:52.415Z,21.34
2019-02-24T06:57:01.897Z,21.35
2019-02-24T06:58:11.230Z,21.24
2019-02-24T06:59:20.264Z,21.27
2019-02-24T07:00:29.605Z,21.28
2019-02-24T07:01:39.421Z,21.28
2019-02-24T07:02:48.455Z,21.29
2019-02-24T07:03:58.941Z,21.28
2019-02-24T07:05:08.521Z,21.27
2019-02-24T07:06:18.069Z,21.22
2019-02-24T07:07:27.832Z,21.24
2019-02-24T07:08:37.169Z,21.22
2019-02-24T07:09:45.942Z,21.24
2019-02-24T07:10:55.698Z,21.22
2019-02-24T07:12:05.016Z,21.29
2019-02-24T07:13:14.062Z,21.22
2019-02-24T07:14:23.467Z,21.28
2019-02-24T07:15:33.027Z,21.21
2019-02-24T07:16:43.095Z,21.27
2019-02-24T07:17:52.150Z,21.22
2019-02-24T07:19:01.922Z,21.14
2019-02-24T07:20:11.650Z,21.27
2019-02-24T07:21:21.233Z,21.24
2019-02-24T07:22:30.273Z,21.13
2019-02-24T07:23:39.574Z,21.19
2019-02-24T07:24:48.547Z,21.13
2019-02-24T07:25:57.770Z,21.17
2019-02-24T07:27:07.252Z,21.13
2019-02-24T07:28:16.530Z,21.16
2019-02-24T07:29:25.771Z,21.19
2019-02-24T07:30:35.011Z,21.17
2019-02-24T07:31:44.004Z,21.13
2019-02-24T07:32:53.994Z,21.16
2019-02-24T07:34:02.723Z,21.14
2019-02-24T07:35:12.471Z,21.16
2019-02-24T07:36:22.282Z,21.13
2019-02-24T07:37:32.056Z,21.16
2019-02-24T07:38:41.570Z,21.1
2019-02-24T07:39:52.607Z,21.13
2019-02-24T07:41:02.131Z,21.19
2019-02-24T07:42:11.195Z,21.13
2019-02-24T07:43:20.971Z,21.07
2019-02-24T07:44:30.214Z,21.06
2019-02-24T07:45:39.783Z,21.1
2019-02-24T07:46:48.860Z,21.1
2019-02-24T07:47:57.983Z,21.12
2019-02-24T07:49:07.790Z,21.1
2019-02-24T07:50:17.080Z,21.1
2019-02-24T07:51:26.094Z,21.12
2019-02-24T07:52:35.918Z,21.13
2019-02-24T07:53:45.531Z,21.06
2019-02-24T07:54:55.093Z,21.14
2019-02-24T07:56:04.893Z,21.13
2019-02-24T07:57:14.234Z,21.13
2019-02-24T07:58:23.280Z,21.13
2019-02-24T07:59:32.577Z,21.07
2019-02-24T08:00:41.828Z,21.14
2019-02-24T08:01:51.940Z,21.14
2019-02-24T08:03:01.257Z,21.22
2019-02-24T08:04:10.231Z,21.14
2019-02-24T08:05:20.046Z,21.07
2019-02-24T08:06:29.839Z,21.19
2019-02-24T08:07:39.112Z,21.06
2019-02-24T08:08:48.198Z,21.07
2019-02-24T08:09:57.708Z,21.17
2019-02-24T08:11:07.194Z,21.16
2019-02-24T08:12:16.691Z,21.13
2019-02-24T08:13:25.972Z,21.12
2019-02-24T08:14:35.461Z,21.13
2019-02-24T08:15:44.418Z,21.17
2019-02-24T08:16:53.722Z,21.13
2019-02-24T08:18:03.240Z,21.12
2019-02-24T08:19:12.794Z,21.06
2019-02-24T08:20:22.547Z,21.14
2019-02-24T08:21:31.544Z,21.01
2019-02-24T08:22:41.060Z,21.03
2019-02-24T08:23:50.609Z,21.17
2019-02-24T08:24:59.674Z,21.12
2019-02-24T08:26:09.266Z,21.1
2019-02-24T08:27:18.603Z,21.22
2019-02-24T08:28:27.686Z,21.12
2019-02-24T08:29:36.693Z,21.16
2019-02-24T08:30:46.660Z,21.09
2019-02-24T08:31:55.687Z,21.06
2019-02-24T08:33:04.987Z,21.07
2019-02-24T08:34:14.031Z,21.14
2019-02-24T08:35:22.778Z,21.19
2019-02-24T08:36:32.115Z,21.07
2019-02-24T08:37:41.938Z,21.13
2019-02-24T08:38:51.431Z,21.06
2019-02-24T08:40:00.667Z,21.13
2019-02-24T08:41:10.443Z,21.13
2019-02-24T08:42:20.204Z,21.07
2019-02-24T08:43:29.931Z,21.1
2019-02-24T08:44:39.226Z,21.09
2019-02-24T08:45:48.313Z,21.1
2019-02-24T08:46:57.525Z,21.12
2019-02-24T08:48:07.295Z,21.19
2019-02-24T08:49:48.635Z,21.13
2019-02-24T08:50:58.590Z,21.16
2019-02-24T08:52:07.718Z,21.1
2019-02-24T08:53:18.154Z,21.07
2019-02-24T08:54:27.757Z,21.13
2019-02-24T08:55:37.506Z,21.07
2019-02-24T08:56:47.308Z,21.13
2019-02-24T08:57:56.698Z,21.13
2019-02-24T08:59:06.217Z,21.1
2019-02-24T09:00:15.474Z,21.13
2019-02-24T09:01:25.455Z,21.12
2019-02-24T09:02:34.437Z,21.06
2019-02-24T09:03:43.723Z,21.13
2019-02-24T09:04:53.090Z,21.13
2019-02-24T09:06:02.595Z,21.13
2019-02-24T09:07:13.447Z,21.12
2019-02-24T09:08:22.805Z,21.16
2019-02-24T09:09:31.559Z,21.13
2019-02-24T09:10:40.807Z,21.13
2019-02-24T09:11:50.816Z,21.1
2019-02-24T09:12:59.628Z,21.16
2019-02-24T09:14:08.702Z,21.16
2019-02-24T09:15:18.774Z,21.17
2019-02-24T09:16:28.100Z,21.14
2019-02-24T09:17:37.656Z,21.14
2019-02-24T09:18:46.732Z,21.14
2019-02-24T09:19:55.807Z,21.16
2019-02-24T09:21:05.491Z,21.14
2019-02-24T09:22:14.768Z,21.16
2019-02-24T09:23:23.837Z,21.19
2019-02-24T09:24:32.702Z,21.14
2019-02-24T09:25:42.005Z,21.17
2019-02-24T09:26:51.862Z,21.12
2019-02-24T09:28:01.692Z,21.14
2019-02-24T09:29:10.695Z,21.13
2019-02-24T09:30:20.532Z,21.14
2019-02-24T09:31:30.143Z,21.13
2019-02-24T09:32:39.446Z,21.13
2019-02-24T09:33:48.461Z,21.13
2019-02-24T09:34:57.968Z,21.13
2019-02-24T09:36:07.483Z,21.13
2019-02-24T09:37:17.217Z,21.07
2019-02-24T09:38:26.516Z,21.07
2019-02-24T09:39:35.568Z,21.13
2019-02-24T09:40:45.284Z,21.09
2019-02-24T09:41:54.768Z,21.14
2019-02-24T09:43:04.299Z,21.07
2019-02-24T09:44:13.591Z,21.13
2019-02-24T09:45:22.922Z,21.01
2019-02-24T09:46:33.213Z,21.13
2019-02-24T09:47:51.223Z,21.04
2019-02-24T09:49:00.554Z,21.07
2019-02-24T09:50:09.812Z,21.06
2019-02-24T09:51:19.431Z,21.06
2019-02-24T09:52:28.692Z,21.01
2019-02-24T09:53:37.971Z,21.04
2019-02-24T09:54:47.273Z,21.03
2019-02-24T09:55:57.066Z,21.06
2019-02-24T09:57:06.879Z,21.07
2019-02-24T09:58:16.130Z,21.12
2019-02-24T09:59:26.224Z,21.06
2019-02-24T10:00:35.726Z,21.07
2019-02-24T10:01:45.242Z,21.07
2019-02-24T10:02:54.782Z,21.04
2019-02-24T10:04:05.205Z,21.04
2019-02-24T10:05:14.984Z,21.04
2019-02-24T10:06:23.720Z,21.07
2019-02-24T10:07:33.505Z,21.07
2019-02-24T10:08:43.005Z,20.98
2019-02-24T10:09:52.507Z,21.03
2019-02-24T10:11:02.003Z,21.03
2019-02-24T10:12:11.260Z,21.07
2019-02-24T10:13:20.247Z,21.09
2019-02-24T10:14:29.526Z,21.04
2019-02-24T10:15:39.540Z,21.04
2019-02-24T10:16:48.550Z,21.12
2019-02-24T10:17:57.815Z,21.06
2019-02-24T10:19:07.651Z,21.07
2019-02-24T10:20:16.711Z,21.09
2019-02-24T10:21:25.939Z,21.12
2019-02-24T10:22:35.249Z,21.13
2019-02-24T10:23:45.935Z,21.14
2019-02-24T10:24:54.749Z,21.22
2019-02-24T10:26:04.547Z,21.29
2019-02-24T10:27:15.054Z,21.37
2019-02-24T10:28:25.254Z,21.43
2019-02-24T10:29:34.758Z,21.52
2019-02-24T10:30:43.820Z,21.56
2019-02-24T10:31:53.338Z,21.59
2019-02-24T10:33:03.317Z,21.68
2019-02-24T10:34:13.795Z,21.77
2019-02-24T10:35:23.221Z,21.79
2019-02-24T10:36:33.726Z,21.92
2019-02-24T10:37:43.507Z,21.83
2019-02-24T10:38:52.650Z,21.94
2019-02-24T10:40:01.955Z,22.02
2019-02-24T10:41:11.986Z,22.09
2019-02-24T10:42:21.620Z,22.12
2019-02-24T10:43:31.026Z,22.18
2019-02-24T10:44:40.856Z,22.28
2019-02-24T10:45:50.502Z,22.25
2019-02-24T10:46:59.924Z,22.4
2019-02-24T10:48:18.670Z,22.4
2019-02-24T10:49:28.302Z,22.45
2019-02-24T10:50:37.218Z,22.43
2019-02-24T10:51:46.936Z,22.51
2019-02-24T10:52:56.382Z,22.61
2019-02-24T10:54:05.913Z,22.52
2019-02-24T10:55:15.268Z,22.6
2019-02-24T10:56:24.732Z,22.73
2019-02-24T10:57:33.493Z,22.73
2019-02-24T10:58:43.024Z,22.76
2019-02-24T10:59:52.529Z,22.8
2019-02-24T11:01:01.789Z,22.83
2019-02-24T11:02:11.120Z,22.92
2019-02-24T11:03:20.647Z,22.9
2019-02-24T11:04:29.901Z,22.88
2019-02-24T11:05:39.461Z,22.91
2019-02-24T11:06:48.988Z,23.04
2019-02-24T11:07:58.492Z,23.09
2019-02-24T11:09:07.567Z,23.04
2019-02-24T11:10:16.857Z,23.07
2019-02-24T11:11:26.216Z,23.16
2019-02-24T11:12:35.271Z,23.17
2019-02-24T11:13:44.802Z,23.13
2019-02-24T11:14:54.042Z,23.22
2019-02-24T11:16:03.308Z,23.28
2019-02-24T11:17:12.876Z,23.17
2019-02-24T11:18:21.926Z,23.16
2019-02-24T11:19:31.468Z,23.25
2019-02-24T11:20:40.983Z,23.25
2019-02-24T11:21:50.036Z,23.23
2019-02-24T11:22:59.777Z,23.38
2019-02-24T11:24:09.020Z,23.42
2019-02-24T11:25:18.014Z,23.39
2019-02-24T11:26:29.344Z,23.35
2019-02-24T11:27:38.691Z,23.42
2019-02-24T11:28:48.172Z,23.48
2019-02-24T11:29:57.757Z,23.47
2019-02-24T11:31:07.033Z,23.53
2019-02-24T11:32:16.065Z,23.5
2019-02-24T11:33:25.580Z,23.54
2019-02-24T11:34:34.879Z,23.6
2019-02-24T11:35:44.706Z,23.55
2019-02-24T11:36:54.045Z,23.58
2019-02-24T11:38:03.085Z,23.55
2019-02-24T11:39:12.688Z,23.6
2019-02-24T11:40:22.532Z,23.57
2019-02-24T11:41:31.620Z,23.58
2019-02-24T11:42:40.941Z,23.66
2019-02-24T11:43:49.846Z,23.65
2019-02-24T11:44:59.254Z,23.68
2019-02-24T11:46:08.354Z,23.66
2019-02-24T11:47:17.471Z,23.65
2019-02-24T11:48:26.505Z,23.6
2019-02-24T11:49:35.790Z,23.76
2019-02-24T11:50:45.788Z,23.76
2019-02-24T11:52:03.593Z,23.7
2019-02-24T11:53:14.237Z,23.66
2019-02-24T11:54:24.665Z,23.69
2019-02-24T11:55:33.983Z,23.68
2019-02-24T11:56:43.298Z,23.73
2019-02-24T11:57:52.656Z,23.72
2019-02-24T11:59:01.881Z,23.8
2019-02-24T12:00:10.958Z,23.87
2019-02-24T12:01:20.541Z,23.79
2019-02-24T12:02:39.059Z,23.83
2019-02-24T12:03:49.457Z,23.73
2019-02-24T12:04:58.449Z,23.76
2019-02-24T12:06:07.425Z,23.75
2019-02-24T12:07:16.442Z,23.7
2019-02-24T12:08:25.941Z,23.73
2019-02-24T12:09:34.913Z,23.72
2019-02-24T12:10:44.406Z,23.69
2019-02-24T12:11:53.912Z,23.63
2019-02-24T12:13:03.392Z,23.58
2019-02-24T12:14:12.875Z,23.68
2019-02-24T12:15:22.140Z,23.63
2019-02-24T12:16:31.903Z,23.57
2019-02-24T12:17:40.931Z,23.6
2019-02-24T12:18:50.455Z,23.53
2019-02-24T12:19:59.938Z,23.51
2019-02-24T12:21:10.726Z,23.55
2019-02-24T12:22:20.057Z,23.47
2019-02-24T12:23:28.785Z,23.47
2019-02-24T12:24:38.515Z,23.51
2019-02-24T12:25:48.004Z,23.42
2019-02-24T12:26:57.758Z,23.48
2019-02-24T12:28:06.782Z,23.42
2019-02-24T12:29:16.268Z,23.33
2019-02-24T12:30:25.771Z,23.47
2019-02-24T12:31:35.011Z,23.35
2019-02-24T12:32:44.490Z,23.36
2019-02-24T12:33:53.765Z,23.39
2019-02-24T12:35:04.561Z,23.36
2019-02-24T12:36:13.797Z,23.33
2019-02-24T12:37:23.020Z,23.33
2019-02-24T12:38:32.021Z,23.33
2019-02-24T12:39:41.536Z,23.43
2019-02-24T12:40:50.795Z,23.39
2019-02-24T12:42:00.347Z,23.38
2019-02-24T12:43:09.847Z,23.32
2019-02-24T12:44:19.076Z,23.39
2019-02-24T12:45:28.325Z,23.38
2019-02-24T12:46:37.293Z,23.35
2019-02-24T12:47:46.538Z,23.36
2019-02-24T12:48:56.053Z,23.35
2019-02-24T12:50:08.313Z,23.36
2019-02-24T12:51:17.835Z,23.35
2019-02-24T12:52:27.093Z,23.42
2019-02-24T12:53:36.338Z,23.4
2019-02-24T12:54:45.564Z,23.35
2019-02-24T12:55:54.908Z,23.42
2019-02-24T12:57:04.684Z,23.43
2019-02-24T12:58:14.239Z,23.43
2019-02-24T12:59:23.763Z,23.48
2019-02-24T13:00:32.779Z,23.39
2019-02-24T13:01:42.005Z,23.47
2019-02-24T13:02:52.033Z,23.51
2019-02-24T13:04:01.790Z,23.55
2019-02-24T13:05:11.087Z,23.53
2019-02-24T13:06:20.370Z,23.54
2019-02-24T13:07:29.602Z,23.57
2019-02-24T13:08:39.615Z,23.54
2019-02-24T13:09:49.110Z,23.6
2019-02-24T13:10:58.866Z,23.66
2019-02-24T13:12:08.338Z,23.66
2019-02-24T13:13:18.115Z,23.63
2019-02-24T13:14:27.335Z,23.61
2019-02-24T13:15:36.352Z,23.73
2019-02-24T13:16:46.088Z,23.65
2019-02-24T13:17:55.607Z,23.68
2019-02-24T13:19:05.152Z,23.65
2019-02-24T13:20:15.178Z,23.69
2019-02-24T13:21:24.745Z,23.73
2019-02-24T13:22:34.318Z,23.66
2019-02-24T13:23:43.365Z,23.75
2019-02-24T13:24:53.115Z,23.84
2019-02-24T13:26:02.656Z,23.79
2019-02-24T13:27:12.166Z,23.75
2019-02-24T13:28:21.932Z,23.87
2019-02-24T13:29:31.461Z,23.78
2019-02-24T13:30:40.787Z,23.75
2019-02-24T13:31:49.877Z,23.72
2019-02-24T13:32:59.194Z,23.79
2019-02-24T13:34:08.230Z,23.75
2019-02-24T13:35:17.950Z,23.76
2019-02-24T13:36:27.211Z,23.78
2019-02-24T13:37:36.712Z,23.87
2019-02-24T13:38:45.996Z,23.85
2019-02-24T13:39:56.466Z,23.83
2019-02-24T13:41:05.981Z,23.95
2019-02-24T13:42:15.043Z,23.9
2019-02-24T13:43:24.280Z,23.79
2019-02-24T13:44:33.298Z,23.95
2019-02-24T13:45:42.566Z,23.91
2019-02-24T13:46:52.151Z,23.84
2019-02-24T13:48:01.746Z,23.87
2019-02-24T13:49:11.308Z,23.87
2019-02-24T13:50:20.338Z,23.9
2019-02-24T13:51:29.634Z,23.93
2019-02-24T13:52:38.981Z,23.83
2019-02-24T13:53:48.565Z,23.91
2019-02-24T13:54:58.347Z,23.93
2019-02-24T13:56:07.268Z,24
2019-02-24T13:57:16.838Z,23.85
2019-02-24T13:58:25.676Z,23.91
2019-02-24T13:59:35.280Z,23.93
2019-02-24T14:00:44.308Z,23.83
2019-02-24T14:01:53.934Z,23.9
2019-02-24T14:03:03.459Z,23.9
2019-02-24T14:04:12.478Z,23.9
2019-02-24T14:05:21.810Z,23.9
2019-02-24T14:06:31.094Z,23.88
2019-02-24T14:07:40.400Z,23.9
2019-02-24T14:08:49.948Z,23.88
2019-02-24T14:09:59.764Z,23.88
2019-02-24T14:11:08.778Z,23.93
2019-02-24T14:12:18.306Z,23.93
2019-02-24T14:13:27.624Z,24.02
2019-02-24T14:14:36.924Z,24.02
2019-02-24T14:15:54.048Z,23.94
2019-02-24T14:17:03.305Z,23.94
2019-02-24T14:18:12.550Z,24.02
2019-02-24T14:19:21.607Z,23.94
2019-02-24T14:20:30.950Z,23.93
2019-02-24T14:21:39.934Z,24.03
2019-02-24T14:22:49.742Z,24.09
2019-02-24T14:23:59.238Z,24.05
2019-02-24T14:25:08.498Z,24
2019-02-24T14:26:19.713Z,23.93
2019-02-24T14:27:28.805Z,24.03
2019-02-24T14:28:38.204Z,23.94
2019-02-24T14:29:47.386Z,24.02
2019-02-24T14:30:56.833Z,23.97
2019-02-24T14:32:06.606Z,24.08
2019-02-24T14:33:15.970Z,24.09
2019-02-24T14:34:25.461Z,24.12
2019-02-24T14:35:34.473Z,23.94
2019-02-24T14:36:44.222Z,24.1
2019-02-24T14:37:53.473Z,24.05
2019-02-24T14:39:02.529Z,24.06
2019-02-24T14:40:12.382Z,24.09
2019-02-24T14:41:21.914Z,24.03
2019-02-24T14:42:31.964Z,23.93
2019-02-24T14:43:41.512Z,23.94
2019-02-24T14:44:50.896Z,24.02
2019-02-24T14:45:59.879Z,23.97
2019-02-24T14:47:09.479Z,23.97
2019-02-24T14:48:18.271Z,23.98
2019-02-24T14:49:27.592Z,23.9
2019-02-24T14:50:37.124Z,23.88
2019-02-24T14:51:46.658Z,23.94
2019-02-24T14:52:56.392Z,23.94
2019-02-24T14:54:05.641Z,23.94
2019-02-24T14:55:15.174Z,23.93
2019-02-24T14:56:24.199Z,23.87
2019-02-24T14:57:33.205Z,23.83
2019-02-24T14:58:42.330Z,23.87
2019-02-24T14:59:51.412Z,23.84
2019-02-24T15:01:02.992Z,23.84